sensor_id;sensor_type;location;lat;lon;timestamp;P1;durP1;ratioP1;P2;durP2;ratioP2
3995;SDS011;2012;49.794;9.722;2022-09-21T00:01:08;19.10;;;2.90;;
3995;SDS011;2012;49.794;9.722;2022-09-21T00:03:45;23.07;;;3.83;;
3995;SDS011;2012;49.794;9.722;2022-09-21T00:06:16;16.90;;;3.77;;
3995;SDS011;2012;49.794;9.722;2022-09-21T00:08:45;43.20;;;4.07;;
3995;SDS011;2012;49.794;9.722;2022-09-21T00:11:19;37.90;;;3.90;;
3995;SDS011;2012;49.794;9.722;2022-09-21T00:13:53;22.37;;;4.10;;
3995;SDS011;2012;49.794;9.722;2022-09-21T00:16:21;9.07;;;3.20;;
3995;SDS011;2012;49.794;9.722;2022-09-21T00:18:48;11.80;;;2.90;;
3995;SDS011;2012;49.794;9.722;2022-09-21T00:21:16;9.03;;;2.50;;
3995;SDS011;2012;49.794;9.722;2022-09-21T00:23:43;38.20;;;3.10;;
3995;SDS011;2012;49.794;9.722;2022-09-21T00:26:11;24.27;;;2.90;;
3995;SDS011;2012;49.794;9.722;2022-09-21T00:28:40;31.27;;;3.47;;
3995;SDS011;2012;49.794;9.722;2022-09-21T00:31:08;15.33;;;3.50;;
3995;SDS011;2012;49.794;9.722;2022-09-21T00:33:37;38.93;;;3.60;;
3995;SDS011;2012;49.794;9.722;2022-09-21T00:36:06;20.27;;;3.20;;
3995;SDS011;2012;49.794;9.722;2022-09-21T00:38:35;7.47;;;3.20;;
3995;SDS011;2012;49.794;9.722;2022-09-21T00:41:02;37.13;;;2.90;;
3995;SDS011;2012;49.794;9.722;2022-09-21T00:43:39;3.63;;;2.30;;
3995;SDS011;2012;49.794;9.722;2022-09-21T00:46:17;11.87;;;2.90;;
3995;SDS011;2012;49.794;9.722;2022-09-21T00:48:52;9.80;;;3.40;;
3995;SDS011;2012;49.794;9.722;2022-09-21T00:51:19;21.67;;;3.20;;
3995;SDS011;2012;49.794;9.722;2022-09-21T00:53:46;23.83;;;2.57;;
3995;SDS011;2012;49.794;9.722;2022-09-21T00:56:17;17.87;;;2.80;;
3995;SDS011;2012;49.794;9.722;2022-09-21T00:58:46;9.30;;;3.13;;
3995;SDS011;2012;49.794;9.722;2022-09-21T01:01:16;5.37;;;2.57;;
3995;SDS011;2012;49.794;9.722;2022-09-21T01:03:45;22.97;;;2.50;;
3995;SDS011;2012;49.794;9.722;2022-09-21T01:06:12;53.10;;;2.97;;
3995;SDS011;2012;49.794;9.722;2022-09-21T01:08:41;4.77;;;2.50;;
3995;SDS011;2012;49.794;9.722;2022-09-21T01:11:14;5.60;;;2.40;;
3995;SDS011;2012;49.794;9.722;2022-09-21T01:14:02;10.60;;;2.33;;
3995;SDS011;2012;49.794;9.722;2022-09-21T01:16:52;9.20;;;2.13;;
3995;SDS011;2012;49.794;9.722;2022-09-21T01:30:51;44.83;;;2.80;;
3995;SDS011;2012;49.794;9.722;2022-09-21T01:35:54;2.73;;;2.53;;
3995;SDS011;2012;49.794;9.722;2022-09-21T01:38:30;10.53;;;2.57;;
3995;SDS011;2012;49.794;9.722;2022-09-21T01:41:04;18.13;;;2.70;;
3995;SDS011;2012;49.794;9.722;2022-09-21T01:43:34;73.63;;;2.70;;
3995;SDS011;2012;49.794;9.722;2022-09-21T01:46:04;13.13;;;2.30;;
3995;SDS011;2012;49.794;9.722;2022-09-21T01:48:37;56.73;;;2.80;;
3995;SDS011;2012;49.794;9.722;2022-09-21T01:51:07;35.47;;;2.73;;
3995;SDS011;2012;49.794;9.722;2022-09-21T01:53:38;5.40;;;2.47;;
3995;SDS011;2012;49.794;9.722;2022-09-21T01:56:21;5.03;;;2.00;;
3995;SDS011;2012;49.794;9.722;2022-09-21T02:01:20;43.47;;;2.10;;
3995;SDS011;2012;49.794;9.722;2022-09-21T02:03:53;20.40;;;2.57;;
3995;SDS011;2012;49.794;9.722;2022-09-21T02:06:24;3.90;;;1.70;;
3995;SDS011;2012;49.794;9.722;2022-09-21T02:08:54;6.60;;;2.10;;
3995;SDS011;2012;49.794;9.722;2022-09-21T02:11:21;25.87;;;2.23;;
3995;SDS011;2012;49.794;9.722;2022-09-21T02:13:49;34.60;;;2.20;;
3995;SDS011;2012;49.794;9.722;2022-09-21T02:24:39;35.70;;;2.57;;
3995;SDS011;2012;49.794;9.722;2022-09-21T02:27:34;37.03;;;2.30;;
3995;SDS011;2012;49.794;9.722;2022-09-21T02:30:19;23.77;;;2.47;;
3995;SDS011;2012;49.794;9.722;2022-09-21T02:35:44;2.67;;;2.43;;
3995;SDS011;2012;49.794;9.722;2022-09-21T02:41:03;2.03;;;1.93;;
3995;SDS011;2012;49.794;9.722;2022-09-21T02:43:34;23.13;;;2.27;;
3995;SDS011;2012;49.794;9.722;2022-09-21T02:46:09;3.20;;;1.80;;
3995;SDS011;2012;49.794;9.722;2022-09-21T02:48:47;9.97;;;1.80;;
3995;SDS011;2012;49.794;9.722;2022-09-21T02:51:19;8.30;;;1.50;;
3995;SDS011;2012;49.794;9.722;2022-09-21T02:53:52;25.70;;;2.10;;
3995;SDS011;2012;49.794;9.722;2022-09-21T02:56:21;9.33;;;2.10;;
3995;SDS011;2012;49.794;9.722;2022-09-21T02:58:50;25.23;;;2.70;;
3995;SDS011;2012;49.794;9.722;2022-09-21T03:01:21;8.93;;;2.00;;
3995;SDS011;2012;49.794;9.722;2022-09-21T03:03:51;15.00;;;2.30;;
3995;SDS011;2012;49.794;9.722;2022-09-21T03:06:18;47.40;;;2.63;;
3995;SDS011;2012;49.794;9.722;2022-09-21T03:08:44;16.83;;;2.53;;
3995;SDS011;2012;49.794;9.722;2022-09-21T03:11:15;19.67;;;2.57;;
3995;SDS011;2012;49.794;9.722;2022-09-21T03:13:42;12.23;;;2.40;;
3995;SDS011;2012;49.794;9.722;2022-09-21T03:16:10;16.63;;;2.60;;
3995;SDS011;2012;49.794;9.722;2022-09-21T03:18:37;9.10;;;2.20;;
3995;SDS011;2012;49.794;9.722;2022-09-21T03:21:05;2.83;;;2.60;;
3995;SDS011;2012;49.794;9.722;2022-09-21T03:23:32;4.60;;;2.10;;
3995;SDS011;2012;49.794;9.722;2022-09-21T03:25:58;12.20;;;2.63;;
3995;SDS011;2012;49.794;9.722;2022-09-21T03:28:25;27.77;;;2.27;;
3995;SDS011;2012;49.794;9.722;2022-09-21T03:30:52;38.87;;;2.30;;
3995;SDS011;2012;49.794;9.722;2022-09-21T03:33:19;18.60;;;2.03;;
3995;SDS011;2012;49.794;9.722;2022-09-21T03:35:46;1.83;;;1.70;;
3995;SDS011;2012;49.794;9.722;2022-09-21T03:38:14;48.73;;;2.20;;
3995;SDS011;2012;49.794;9.722;2022-09-21T03:40:45;31.37;;;2.03;;
3995;SDS011;2012;49.794;9.722;2022-09-21T03:43:13;9.93;;;1.80;;
3995;SDS011;2012;49.794;9.722;2022-09-21T03:45:40;16.50;;;1.93;;
3995;SDS011;2012;49.794;9.722;2022-09-21T03:48:08;27.10;;;2.20;;
3995;SDS011;2012;49.794;9.722;2022-09-21T03:50:36;63.27;;;2.80;;
3995;SDS011;2012;49.794;9.722;2022-09-21T03:53:03;12.23;;;2.13;;
3995;SDS011;2012;49.794;9.722;2022-09-21T03:55:30;30.97;;;3.03;;
3995;SDS011;2012;49.794;9.722;2022-09-21T03:57:58;29.33;;;5.87;;
3995;SDS011;2012;49.794;9.722;2022-09-21T04:00:25;11.23;;;3.63;;
3995;SDS011;2012;49.794;9.722;2022-09-21T04:02:52;49.73;;;2.90;;
3995;SDS011;2012;49.794;9.722;2022-09-21T04:05:19;9.90;;;1.83;;
3995;SDS011;2012;49.794;9.722;2022-09-21T04:07:46;4.50;;;1.87;;
3995;SDS011;2012;49.794;9.722;2022-09-21T04:10:15;9.43;;;2.20;;
3995;SDS011;2012;49.794;9.722;2022-09-21T04:12:44;1.87;;;1.77;;
3995;SDS011;2012;49.794;9.722;2022-09-21T04:15:13;1.97;;;1.73;;
3995;SDS011;2012;49.794;9.722;2022-09-21T04:17:41;3.83;;;1.70;;
3995;SDS011;2012;49.794;9.722;2022-09-21T04:20:08;6.43;;;1.50;;
3995;SDS011;2012;49.794;9.722;2022-09-21T04:22:34;2.03;;;1.83;;
3995;SDS011;2012;49.794;9.722;2022-09-21T04:25:08;4.20;;;1.53;;
3995;SDS011;2012;49.794;9.722;2022-09-21T04:27:35;13.43;;;2.73;;
3995;SDS011;2012;49.794;9.722;2022-09-21T04:30:02;34.47;;;2.33;;
3995;SDS011;2012;49.794;9.722;2022-09-21T04:32:30;9.20;;;2.53;;
3995;SDS011;2012;49.794;9.722;2022-09-21T04:34:57;3.43;;;1.70;;
3995;SDS011;2012;49.794;9.722;2022-09-21T04:37:23;15.37;;;2.70;;
3995;SDS011;2012;49.794;9.722;2022-09-21T04:39:50;29.07;;;2.60;;
3995;SDS011;2012;49.794;9.722;2022-09-21T04:42:17;3.03;;;2.17;;
3995;SDS011;2012;49.794;9.722;2022-09-21T04:44:44;26.50;;;2.80;;
3995;SDS011;2012;49.794;9.722;2022-09-21T04:47:10;2.90;;;1.80;;
3995;SDS011;2012;49.794;9.722;2022-09-21T04:49:37;6.80;;;1.70;;
3995;SDS011;2012;49.794;9.722;2022-09-21T04:52:04;23.03;;;2.10;;
3995;SDS011;2012;49.794;9.722;2022-09-21T04:54:31;50.10;;;2.63;;
3995;SDS011;2012;49.794;9.722;2022-09-21T04:56:57;61.47;;;2.60;;
3995;SDS011;2012;49.794;9.722;2022-09-21T04:59:24;11.43;;;2.00;;
3995;SDS011;2012;49.794;9.722;2022-09-21T05:01:51;15.30;;;2.03;;
3995;SDS011;2012;49.794;9.722;2022-09-21T05:04:18;15.53;;;2.60;;
3995;SDS011;2012;49.794;9.722;2022-09-21T05:06:44;23.50;;;2.30;;
3995;SDS011;2012;49.794;9.722;2022-09-21T05:09:11;2.53;;;1.83;;
3995;SDS011;2012;49.794;9.722;2022-09-21T05:11:56;40.43;;;3.07;;
3995;SDS011;2012;49.794;9.722;2022-09-21T05:14:23;28.17;;;2.53;;
3995;SDS011;2012;49.794;9.722;2022-09-21T05:16:49;7.73;;;1.87;;
3995;SDS011;2012;49.794;9.722;2022-09-21T05:19:16;38.60;;;2.93;;
3995;SDS011;2012;49.794;9.722;2022-09-21T05:21:43;36.17;;;2.67;;
3995;SDS011;2012;49.794;9.722;2022-09-21T05:24:09;8.30;;;2.83;;
3995;SDS011;2012;49.794;9.722;2022-09-21T05:26:36;29.87;;;2.70;;
3995;SDS011;2012;49.794;9.722;2022-09-21T05:29:03;6.17;;;2.70;;
3995;SDS011;2012;49.794;9.722;2022-09-21T05:36:57;17.20;;;2.93;;
3995;SDS011;2012;49.794;9.722;2022-09-21T05:39:24;9.97;;;2.70;;
3995;SDS011;2012;49.794;9.722;2022-09-21T05:41:51;32.43;;;2.73;;
3995;SDS011;2012;49.794;9.722;2022-09-21T05:44:18;6.03;;;2.40;;
3995;SDS011;2012;49.794;9.722;2022-09-21T05:54:19;8.60;;;2.50;;
3995;SDS011;2012;49.794;9.722;2022-09-21T06:05:09;45.90;;;2.30;;
3995;SDS011;2012;49.794;9.722;2022-09-21T06:07:38;51.50;;;2.90;;
3995;SDS011;2012;49.794;9.722;2022-09-21T06:10:05;4.73;;;2.33;;
3995;SDS011;2012;49.794;9.722;2022-09-21T06:12:33;21.13;;;2.57;;
3995;SDS011;2012;49.794;9.722;2022-09-21T06:14:59;38.73;;;2.50;;
3995;SDS011;2012;49.794;9.722;2022-09-21T06:17:26;17.83;;;2.77;;
3995;SDS011;2012;49.794;9.722;2022-09-21T06:19:53;2.80;;;2.07;;
3995;SDS011;2012;49.794;9.722;2022-09-21T06:22:20;8.40;;;2.17;;
3995;SDS011;2012;49.794;9.722;2022-09-21T06:24:46;28.73;;;2.80;;
3995;SDS011;2012;49.794;9.722;2022-09-21T06:27:13;14.87;;;2.40;;
3995;SDS011;2012;49.794;9.722;2022-09-21T06:29:40;26.07;;;2.67;;
3995;SDS011;2012;49.794;9.722;2022-09-21T06:32:07;32.43;;;2.93;;
3995;SDS011;2012;49.794;9.722;2022-09-21T06:34:33;12.17;;;2.70;;
3995;SDS011;2012;49.794;9.722;2022-09-21T06:37:00;3.27;;;2.90;;
3995;SDS011;2012;49.794;9.722;2022-09-21T06:39:27;9.97;;;2.30;;
3995;SDS011;2012;49.794;9.722;2022-09-21T06:41:53;4.20;;;2.23;;
3995;SDS011;2012;49.794;9.722;2022-09-21T06:44:21;20.20;;;2.13;;
3995;SDS011;2012;49.794;9.722;2022-09-21T06:46:48;20.17;;;1.90;;
3995;SDS011;2012;49.794;9.722;2022-09-21T06:49:14;17.70;;;1.73;;
3995;SDS011;2012;49.794;9.722;2022-09-21T06:51:41;1.47;;;1.37;;
3995;SDS011;2012;49.794;9.722;2022-09-21T06:54:08;4.00;;;1.40;;
3995;SDS011;2012;49.794;9.722;2022-09-21T06:56:35;2.47;;;1.63;;
3995;SDS011;2012;49.794;9.722;2022-09-21T06:59:02;1.40;;;1.30;;
3995;SDS011;2012;49.794;9.722;2022-09-21T07:01:29;4.50;;;1.60;;
3995;SDS011;2012;49.794;9.722;2022-09-21T07:03:56;23.10;;;1.80;;
3995;SDS011;2012;49.794;9.722;2022-09-21T07:06:22;1.33;;;1.23;;
3995;SDS011;2012;49.794;9.722;2022-09-21T07:08:52;1.10;;;1.00;;
3995;SDS011;2012;49.794;9.722;2022-09-21T07:11:39;2.50;;;1.43;;
3995;SDS011;2012;49.794;9.722;2022-09-21T07:14:07;1.30;;;1.20;;
3995;SDS011;2012;49.794;9.722;2022-09-21T07:16:33;1.33;;;1.23;;
3995;SDS011;2012;49.794;9.722;2022-09-21T07:19:01;1.23;;;1.13;;
3995;SDS011;2012;49.794;9.722;2022-09-21T07:21:36;1.50;;;1.40;;
3995;SDS011;2012;49.794;9.722;2022-09-21T07:24:03;1.93;;;1.80;;
3995;SDS011;2012;49.794;9.722;2022-09-21T07:26:38;2.20;;;2.00;;
3995;SDS011;2012;49.794;9.722;2022-09-21T07:29:05;4.73;;;1.60;;
3995;SDS011;2012;49.794;9.722;2022-09-21T07:31:32;8.43;;;1.87;;
3995;SDS011;2012;49.794;9.722;2022-09-21T07:33:59;1.93;;;1.63;;
3995;SDS011;2012;49.794;9.722;2022-09-21T07:36:26;1.90;;;1.67;;
3995;SDS011;2012;49.794;9.722;2022-09-21T07:38:52;2.73;;;2.00;;
3995;SDS011;2012;49.794;9.722;2022-09-21T07:41:19;4.00;;;2.17;;
3995;SDS011;2012;49.794;9.722;2022-09-21T07:43:46;3.03;;;2.00;;
3995;SDS011;2012;49.794;9.722;2022-09-21T07:46:13;2.50;;;2.13;;
3995;SDS011;2012;49.794;9.722;2022-09-21T07:48:40;2.60;;;2.40;;
3995;SDS011;2012;49.794;9.722;2022-09-21T07:51:11;11.83;;;2.07;;
3995;SDS011;2012;49.794;9.722;2022-09-21T07:53:39;3.77;;;2.23;;
3995;SDS011;2012;49.794;9.722;2022-09-21T07:56:13;2.27;;;1.87;;
3995;SDS011;2012;49.794;9.722;2022-09-21T07:58:42;2.60;;;2.40;;
3995;SDS011;2012;49.794;9.722;2022-09-21T08:01:28;2.43;;;2.27;;
3995;SDS011;2012;49.794;9.722;2022-09-21T08:03:56;2.80;;;2.53;;
3995;SDS011;2012;49.794;9.722;2022-09-21T08:06:24;3.63;;;3.20;;
3995;SDS011;2012;49.794;9.722;2022-09-21T08:08:53;4.43;;;2.63;;
3995;SDS011;2012;49.794;9.722;2022-09-21T08:11:23;8.60;;;3.20;;
3995;SDS011;2012;49.794;9.722;2022-09-21T08:13:51;4.80;;;2.90;;
3995;SDS011;2012;49.794;9.722;2022-09-21T08:16:19;3.90;;;2.30;;
3995;SDS011;2012;49.794;9.722;2022-09-21T08:18:47;2.90;;;2.60;;
3995;SDS011;2012;49.794;9.722;2022-09-21T08:21:14;4.10;;;2.90;;
3995;SDS011;2012;49.794;9.722;2022-09-21T08:23:40;4.17;;;2.50;;
3995;SDS011;2012;49.794;9.722;2022-09-21T08:26:12;3.30;;;3.00;;
3995;SDS011;2012;49.794;9.722;2022-09-21T08:28:44;4.37;;;2.80;;
3995;SDS011;2012;49.794;9.722;2022-09-21T08:31:15;4.47;;;3.40;;
3995;SDS011;2012;49.794;9.722;2022-09-21T08:33:47;5.40;;;3.23;;
3995;SDS011;2012;49.794;9.722;2022-09-21T08:36:15;3.17;;;2.87;;
3995;SDS011;2012;49.794;9.722;2022-09-21T08:38:42;5.83;;;3.53;;
3995;SDS011;2012;49.794;9.722;2022-09-21T08:41:31;4.10;;;3.70;;
3995;SDS011;2012;49.794;9.722;2022-09-21T08:50:36;9.80;;;3.27;;
3995;SDS011;2012;49.794;9.722;2022-09-21T08:53:14;5.47;;;3.83;;
3995;SDS011;2012;49.794;9.722;2022-09-21T08:55:44;7.90;;;4.40;;
3995;SDS011;2012;49.794;9.722;2022-09-21T09:12:15;5.50;;;4.80;;
3995;SDS011;2012;49.794;9.722;2022-09-21T09:18:00;8.00;;;4.57;;
3995;SDS011;2012;49.794;9.722;2022-09-21T09:20:43;8.13;;;4.97;;
3995;SDS011;2012;49.794;9.722;2022-09-21T09:26:04;7.87;;;4.67;;
3995;SDS011;2012;49.794;9.722;2022-09-21T09:31:34;19.00;;;5.70;;
3995;SDS011;2012;49.794;9.722;2022-09-21T09:34:08;8.90;;;5.67;;
3995;SDS011;2012;49.794;9.722;2022-09-21T09:36:42;10.70;;;5.33;;
3995;SDS011;2012;49.794;9.722;2022-09-21T09:39:24;9.43;;;5.30;;
3995;SDS011;2012;49.794;9.722;2022-09-21T09:52:52;7.47;;;3.87;;
3995;SDS011;2012;49.794;9.722;2022-09-21T09:55:30;7.93;;;4.77;;
3995;SDS011;2012;49.794;9.722;2022-09-21T09:58:03;15.37;;;4.93;;
3995;SDS011;2012;49.794;9.722;2022-09-21T10:00:30;5.90;;;4.63;;
3995;SDS011;2012;49.794;9.722;2022-09-21T10:02:57;6.60;;;4.47;;
3995;SDS011;2012;49.794;9.722;2022-09-21T10:07:54;5.87;;;4.40;;
3995;SDS011;2012;49.794;9.722;2022-09-21T10:15:42;9.70;;;3.60;;
3995;SDS011;2012;49.794;9.722;2022-09-21T10:18:23;9.67;;;3.10;;
3995;SDS011;2012;49.794;9.722;2022-09-21T10:23:27;3.17;;;2.77;;
3995;SDS011;2012;49.794;9.722;2022-09-21T10:26:06;9.93;;;3.00;;
3995;SDS011;2012;49.794;9.722;2022-09-21T10:28:37;8.17;;;3.10;;
3995;SDS011;2012;49.794;9.722;2022-09-21T10:31:21;8.93;;;3.30;;
3995;SDS011;2012;49.794;9.722;2022-09-21T10:33:53;5.20;;;2.50;;
3995;SDS011;2012;49.794;9.722;2022-09-21T10:36:24;5.10;;;3.57;;
3995;SDS011;2012;49.794;9.722;2022-09-21T10:38:52;8.93;;;3.10;;
3995;SDS011;2012;49.794;9.722;2022-09-21T10:41:19;5.63;;;2.80;;
3995;SDS011;2012;49.794;9.722;2022-09-21T10:43:46;5.37;;;2.70;;
3995;SDS011;2012;49.794;9.722;2022-09-21T10:46:15;6.17;;;2.70;;
3995;SDS011;2012;49.794;9.722;2022-09-21T10:48:43;2.83;;;2.27;;
3995;SDS011;2012;49.794;9.722;2022-09-21T10:51:19;4.50;;;2.67;;
3995;SDS011;2012;49.794;9.722;2022-09-21T10:53:53;4.13;;;2.27;;
3995;SDS011;2012;49.794;9.722;2022-09-21T10:56:20;3.67;;;1.93;;
3995;SDS011;2012;49.794;9.722;2022-09-21T10:59:08;2.73;;;1.80;;
3995;SDS011;2012;49.794;9.722;2022-09-21T11:01:42;3.27;;;1.53;;
3995;SDS011;2012;49.794;9.722;2022-09-21T11:04:12;5.13;;;2.03;;
3995;SDS011;2012;49.794;9.722;2022-09-21T11:06:44;7.50;;;2.57;;
3995;SDS011;2012;49.794;9.722;2022-09-21T11:09:22;3.60;;;1.47;;
3995;SDS011;2012;49.794;9.722;2022-09-21T11:12:20;3.60;;;1.47;;
3995;SDS011;2012;49.794;9.722;2022-09-21T11:15:02;3.07;;;1.20;;
3995;SDS011;2012;49.794;9.722;2022-09-21T11:28:18;4.00;;;1.57;;
3995;SDS011;2012;49.794;9.722;2022-09-21T11:30:55;7.13;;;1.37;;
3995;SDS011;2012;49.794;9.722;2022-09-21T11:33:48;2.70;;;1.57;;
3995;SDS011;2012;49.794;9.722;2022-09-21T11:50:23;1.73;;;1.10;;
3995;SDS011;2012;49.794;9.722;2022-09-21T11:58:40;1.93;;;1.00;;
3995;SDS011;2012;49.794;9.722;2022-09-21T12:07:04;1.27;;;1.10;;
3995;SDS011;2012;49.794;9.722;2022-09-21T12:12:54;3.27;;;1.20;;
3995;SDS011;2012;49.794;9.722;2022-09-21T12:15:41;2.23;;;1.50;;
3995;SDS011;2012;49.794;9.722;2022-09-21T12:18:43;4.90;;;1.10;;
3995;SDS011;2012;49.794;9.722;2022-09-21T12:21:20;3.03;;;0.97;;
3995;SDS011;2012;49.794;9.722;2022-09-21T12:24:03;2.03;;;1.10;;
3995;SDS011;2012;49.794;9.722;2022-09-21T12:26:39;2.23;;;1.07;;
3995;SDS011;2012;49.794;9.722;2022-09-21T12:29:14;10.87;;;1.03;;
3995;SDS011;2012;49.794;9.722;2022-09-21T12:31:55;1.33;;;0.93;;
3995;SDS011;2012;49.794;9.722;2022-09-21T12:34:28;2.40;;;1.10;;
3995;SDS011;2012;49.794;9.722;2022-09-21T12:45:47;1.83;;;1.07;;
3995;SDS011;2012;49.794;9.722;2022-09-21T12:48:27;3.97;;;1.20;;
3995;SDS011;2012;49.794;9.722;2022-09-21T12:50:59;2.97;;;1.20;;
3995;SDS011;2012;49.794;9.722;2022-09-21T12:53:37;1.67;;;0.90;;
3995;SDS011;2012;49.794;9.722;2022-09-21T12:59:04;1.70;;;0.70;;
3995;SDS011;2012;49.794;9.722;2022-09-21T13:06:47;0.90;;;0.63;;
3995;SDS011;2012;49.794;9.722;2022-09-21T13:09:27;2.30;;;0.80;;
3995;SDS011;2012;49.794;9.722;2022-09-21T13:12:06;1.00;;;0.80;;
3995;SDS011;2012;49.794;9.722;2022-09-21T13:14:43;4.17;;;0.93;;
3995;SDS011;2012;49.794;9.722;2022-09-21T13:20:14;0.83;;;0.80;;
3995;SDS011;2012;49.794;9.722;2022-09-21T13:22:45;5.17;;;0.87;;
3995;SDS011;2012;49.794;9.722;2022-09-21T13:25:19;2.30;;;0.77;;
3995;SDS011;2012;49.794;9.722;2022-09-21T13:30:43;2.70;;;1.10;;
3995;SDS011;2012;49.794;9.722;2022-09-21T13:38:30;0.90;;;0.80;;
3995;SDS011;2012;49.794;9.722;2022-09-21T13:54:18;0.87;;;0.70;;
3995;SDS011;2012;49.794;9.722;2022-09-21T13:56:55;0.70;;;0.60;;
3995;SDS011;2012;49.794;9.722;2022-09-21T13:59:34;1.00;;;0.90;;
3995;SDS011;2012;49.794;9.722;2022-09-21T14:02:06;1.57;;;0.80;;
3995;SDS011;2012;49.794;9.722;2022-09-21T14:04:48;2.10;;;0.80;;
3995;SDS011;2012;49.794;9.722;2022-09-21T14:07:16;3.23;;;0.90;;
3995;SDS011;2012;49.794;9.722;2022-09-21T14:10:03;0.80;;;0.70;;
3995;SDS011;2012;49.794;9.722;2022-09-21T14:12:37;2.93;;;0.80;;
3995;SDS011;2012;49.794;9.722;2022-09-21T14:15:30;1.80;;;1.00;;
3995;SDS011;2012;49.794;9.722;2022-09-21T14:23:36;1.00;;;0.80;;
3995;SDS011;2012;49.794;9.722;2022-09-21T14:26:30;5.10;;;0.80;;
3995;SDS011;2012;49.794;9.722;2022-09-21T14:31:57;1.37;;;0.80;;
3995;SDS011;2012;49.794;9.722;2022-09-21T14:34:29;1.87;;;1.10;;
3995;SDS011;2012;49.794;9.722;2022-09-21T14:37:01;1.57;;;0.80;;
3995;SDS011;2012;49.794;9.722;2022-09-21T14:39:36;1.53;;;0.90;;
3995;SDS011;2012;49.794;9.722;2022-09-21T14:42:07;1.20;;;0.93;;
3995;SDS011;2012;49.794;9.722;2022-09-21T14:44:45;1.10;;;1.00;;
3995;SDS011;2012;49.794;9.722;2022-09-21T14:47:34;1.20;;;0.77;;
3995;SDS011;2012;49.794;9.722;2022-09-21T14:58:15;0.83;;;0.80;;
3995;SDS011;2012;49.794;9.722;2022-09-21T15:00:46;1.43;;;1.00;;
3995;SDS011;2012;49.794;9.722;2022-09-21T15:12:20;1.30;;;1.20;;
3995;SDS011;2012;49.794;9.722;2022-09-21T15:14:59;1.60;;;1.17;;
3995;SDS011;2012;49.794;9.722;2022-09-21T15:17:33;1.57;;;1.03;;
3995;SDS011;2012;49.794;9.722;2022-09-21T15:20:00;2.23;;;0.90;;
3995;SDS011;2012;49.794;9.722;2022-09-21T15:22:42;1.10;;;0.90;;
3995;SDS011;2012;49.794;9.722;2022-09-21T15:25:11;1.00;;;0.90;;
3995;SDS011;2012;49.794;9.722;2022-09-21T15:27:40;2.27;;;0.93;;
3995;SDS011;2012;49.794;9.722;2022-09-21T15:30:17;2.10;;;1.17;;
3995;SDS011;2012;49.794;9.722;2022-09-21T15:32:53;3.77;;;1.60;;
3995;SDS011;2012;49.794;9.722;2022-09-21T15:35:23;2.53;;;1.20;;
3995;SDS011;2012;49.794;9.722;2022-09-21T15:37:56;2.73;;;1.10;;
3995;SDS011;2012;49.794;9.722;2022-09-21T15:40:26;3.70;;;1.07;;
3995;SDS011;2012;49.794;9.722;2022-09-21T15:45:47;1.53;;;0.90;;
3995;SDS011;2012;49.794;9.722;2022-09-21T15:48:23;1.20;;;0.90;;
3995;SDS011;2012;49.794;9.722;2022-09-21T15:53:44;1.30;;;1.00;;
3995;SDS011;2012;49.794;9.722;2022-09-21T15:56:16;3.27;;;1.13;;
3995;SDS011;2012;49.794;9.722;2022-09-21T15:58:47;1.73;;;0.90;;
3995;SDS011;2012;49.794;9.722;2022-09-21T16:01:19;0.90;;;0.80;;
3995;SDS011;2012;49.794;9.722;2022-09-21T16:04:00;1.60;;;0.90;;
3995;SDS011;2012;49.794;9.722;2022-09-21T16:06:38;1.30;;;1.20;;
3995;SDS011;2012;49.794;9.722;2022-09-21T16:11:49;2.43;;;1.80;;
3995;SDS011;2012;49.794;9.722;2022-09-21T16:14:17;2.40;;;1.60;;
3995;SDS011;2012;49.794;9.722;2022-09-21T16:19:38;2.90;;;1.40;;
3995;SDS011;2012;49.794;9.722;2022-09-21T16:22:13;1.63;;;1.30;;
3995;SDS011;2012;49.794;9.722;2022-09-21T16:24:43;1.60;;;1.50;;
3995;SDS011;2012;49.794;9.722;2022-09-21T16:27:16;2.00;;;1.53;;
3995;SDS011;2012;49.794;9.722;2022-09-21T16:29:45;2.83;;;2.10;;
3995;SDS011;2012;49.794;9.722;2022-09-21T16:34:43;2.93;;;2.10;;
3995;SDS011;2012;49.794;9.722;2022-09-21T16:39:50;2.83;;;1.80;;
3995;SDS011;2012;49.794;9.722;2022-09-21T16:42:19;4.80;;;1.80;;
3995;SDS011;2012;49.794;9.722;2022-09-21T16:44:47;4.60;;;1.83;;
3995;SDS011;2012;49.794;9.722;2022-09-21T16:47:18;2.93;;;1.63;;
3995;SDS011;2012;49.794;9.722;2022-09-21T16:49:54;3.47;;;1.50;;
3995;SDS011;2012;49.794;9.722;2022-09-21T16:52:26;2.00;;;1.40;;
3995;SDS011;2012;49.794;9.722;2022-09-21T16:54:55;1.37;;;1.27;;
3995;SDS011;2012;49.794;9.722;2022-09-21T16:57:24;2.63;;;1.00;;
3995;SDS011;2012;49.794;9.722;2022-09-21T16:59:51;3.47;;;1.00;;
3995;SDS011;2012;49.794;9.722;2022-09-21T17:02:18;3.20;;;1.00;;
3995;SDS011;2012;49.794;9.722;2022-09-21T17:04:45;1.20;;;0.97;;
3995;SDS011;2012;49.794;9.722;2022-09-21T17:07:13;3.30;;;1.20;;
3995;SDS011;2012;49.794;9.722;2022-09-21T17:09:41;1.33;;;1.00;;
3995;SDS011;2012;49.794;9.722;2022-09-21T17:12:12;1.30;;;1.00;;
3995;SDS011;2012;49.794;9.722;2022-09-21T17:14:40;2.50;;;1.27;;
3995;SDS011;2012;49.794;9.722;2022-09-21T17:17:16;1.10;;;0.90;;
3995;SDS011;2012;49.794;9.722;2022-09-21T17:19:48;3.13;;;1.20;;
3995;SDS011;2012;49.794;9.722;2022-09-21T17:22:17;1.93;;;1.13;;
3995;SDS011;2012;49.794;9.722;2022-09-21T17:24:48;0.93;;;0.90;;
3995;SDS011;2012;49.794;9.722;2022-09-21T17:27:21;1.63;;;1.30;;
3995;SDS011;2012;49.794;9.722;2022-09-21T17:29:49;2.03;;;1.13;;
3995;SDS011;2012;49.794;9.722;2022-09-21T17:32:19;7.57;;;1.27;;
3995;SDS011;2012;49.794;9.722;2022-09-21T17:34:57;1.20;;;1.00;;
3995;SDS011;2012;49.794;9.722;2022-09-21T17:37:33;3.17;;;1.30;;
3995;SDS011;2012;49.794;9.722;2022-09-21T17:40:03;2.33;;;1.40;;
3995;SDS011;2012;49.794;9.722;2022-09-21T17:42:37;7.10;;;1.23;;
3995;SDS011;2012;49.794;9.722;2022-09-21T17:47:39;1.93;;;1.37;;
3995;SDS011;2012;49.794;9.722;2022-09-21T17:50:13;1.97;;;1.00;;
3995;SDS011;2012;49.794;9.722;2022-09-21T17:52:48;2.40;;;1.10;;
3995;SDS011;2012;49.794;9.722;2022-09-21T17:55:34;1.40;;;1.10;;
3995;SDS011;2012;49.794;9.722;2022-09-21T18:01:08;1.70;;;1.60;;
3995;SDS011;2012;49.794;9.722;2022-09-21T18:03:45;4.50;;;1.53;;
3995;SDS011;2012;49.794;9.722;2022-09-21T18:06:13;6.60;;;1.60;;
3995;SDS011;2012;49.794;9.722;2022-09-21T18:08:40;1.50;;;1.40;;
3995;SDS011;2012;49.794;9.722;2022-09-21T18:11:22;2.87;;;1.27;;
3995;SDS011;2012;49.794;9.722;2022-09-21T18:17:03;2.20;;;2.00;;
3995;SDS011;2012;49.794;9.722;2022-09-21T18:24:57;3.90;;;2.40;;
3995;SDS011;2012;49.794;9.722;2022-09-21T18:27:24;4.07;;;1.90;;
3995;SDS011;2012;49.794;9.722;2022-09-21T18:29:51;1.90;;;1.77;;
3995;SDS011;2012;49.794;9.722;2022-09-21T18:35:17;10.77;;;1.50;;
3995;SDS011;2012;49.794;9.722;2022-09-21T18:43:31;15.47;;;10.43;;
3995;SDS011;2012;49.794;9.722;2022-09-21T18:46:16;15.87;;;9.40;;
3995;SDS011;2012;49.794;9.722;2022-09-21T18:54:19;3.50;;;2.30;;
3995;SDS011;2012;49.794;9.722;2022-09-21T18:56:47;2.70;;;1.70;;
3995;SDS011;2012;49.794;9.722;2022-09-21T18:59:15;3.93;;;1.40;;
3995;SDS011;2012;49.794;9.722;2022-09-21T19:01:42;5.10;;;1.33;;
3995;SDS011;2012;49.794;9.722;2022-09-21T19:04:12;3.90;;;1.53;;
3995;SDS011;2012;49.794;9.722;2022-09-21T19:06:59;1.50;;;1.27;;
3995;SDS011;2012;49.794;9.722;2022-09-21T19:09:39;2.50;;;1.20;;
3995;SDS011;2012;49.794;9.722;2022-09-21T19:18:38;3.83;;;1.57;;
3995;SDS011;2012;49.794;9.722;2022-09-21T19:23:54;8.33;;;1.70;;
3995;SDS011;2012;49.794;9.722;2022-09-21T19:29:39;1.70;;;1.60;;
3995;SDS011;2012;49.794;9.722;2022-09-21T19:32:17;2.33;;;1.30;;
3995;SDS011;2012;49.794;9.722;2022-09-21T19:35:00;3.47;;;1.40;;
3995;SDS011;2012;49.794;9.722;2022-09-21T19:37:56;1.63;;;1.27;;
3995;SDS011;2012;49.794;9.722;2022-09-21T19:40:28;4.37;;;1.57;;
3995;SDS011;2012;49.794;9.722;2022-09-21T19:48:53;2.03;;;1.23;;
3995;SDS011;2012;49.794;9.722;2022-09-21T19:54:01;1.97;;;1.23;;
3995;SDS011;2012;49.794;9.722;2022-09-21T19:56:52;1.60;;;1.50;;
3995;SDS011;2012;49.794;9.722;2022-09-21T19:59:38;5.90;;;1.53;;
3995;SDS011;2012;49.794;9.722;2022-09-21T20:05:05;1.60;;;1.50;;
3995;SDS011;2012;49.794;9.722;2022-09-21T20:10:38;1.70;;;1.50;;
3995;SDS011;2012;49.794;9.722;2022-09-21T20:13:22;7.83;;;1.70;;
3995;SDS011;2012;49.794;9.722;2022-09-21T20:16:01;7.70;;;2.03;;
3995;SDS011;2012;49.794;9.722;2022-09-21T20:18:46;2.00;;;1.90;;
3995;SDS011;2012;49.794;9.722;2022-09-21T20:21:23;2.63;;;1.40;;